createdAt,value
2019-01-24T00:01:56.177Z,99919.27
2019-01-24T00:04:59.553Z,99925.98
2019-01-24T00:08:02.993Z,99934.83
2019-01-24T00:11:06.444Z,99935.97
2019-01-24T00:14:29.164Z,99935.42
2019-01-24T00:17:32.525Z,99952.35
2019-01-24T00:20:35.904Z,99947.93
2019-01-24T00:23:39.274Z,99951.42
2019-01-24T00:26:42.649Z,99955.16
2019-01-24T00:29:46.026Z,99964.16
2019-01-24T00:32:49.401Z,99963.19
2019-01-24T00:35:52.775Z,99965.77
2019-01-24T00:38:56.157Z,99967.36
2019-01-24T00:42:14.057Z,99976.59
2019-01-24T00:45:07.598Z,99968.31
2019-01-24T00:48:10.971Z,99978.00
2019-01-24T00:51:14.339Z,99974.42
2019-01-24T00:54:17.715Z,99968.18
2019-01-24T00:57:21.089Z,99976.47
2019-01-24T01:00:26.402Z,99975.64
2019-01-24T01:03:29.773Z,99979.13
2019-01-24T01:06:33.146Z,99984.00
2019-01-24T01:09:36.538Z,99982.94
2019-01-24T01:12:39.918Z,99986.07
2019-01-24T01:15:43.311Z,99990.97
2019-01-24T01:18:46.710Z,100001.80
2019-01-24T01:21:50.083Z,100007.36
2019-01-24T01:24:53.465Z,100009.82
2019-01-24T01:27:56.845Z,100020.10
2019-01-24T01:31:00.302Z,100013.77
2019-01-24T01:34:04.052Z,100021.50
2019-01-24T01:37:07.432Z,100022.20
2019-01-24T01:40:13.562Z,100025.52
2019-01-24T01:43:16.946Z,100024.88
2019-01-24T01:46:20.328Z,100023.98
2019-01-24T01:49:23.724Z,100039.18
2019-01-24T01:52:27.101Z,100038.92
2019-01-24T01:55:30.491Z,100032.95
2019-01-24T01:58:33.860Z,100038.55
2019-01-24T02:01:37.241Z,100033.27
2019-01-24T02:04:42.964Z,100043.34
2019-01-24T02:07:45.724Z,100049.30
2019-01-24T02:10:49.100Z,100042.38
2019-01-24T02:13:54.420Z,100042.80
2019-01-24T02:16:57.801Z,100045.00
2019-01-24T02:20:01.181Z,100051.39
2019-01-24T02:23:04.803Z,100053.16
2019-01-24T02:26:08.178Z,100050.55
2019-01-24T02:29:11.560Z,100055.62
2019-01-24T02:32:14.962Z,100064.05
2019-01-24T02:35:18.410Z,100063.34
2019-01-24T02:38:21.799Z,100057.86
2019-01-24T02:41:25.176Z,100069.69
2019-01-24T02:44:28.563Z,100062.62
2019-01-24T02:47:31.939Z,100059.60
2019-01-24T02:50:35.324Z,100060.73
2019-01-24T02:53:38.696Z,100066.63
2019-01-24T02:56:42.083Z,100072.98
2019-01-24T02:59:45.484Z,100069.12
2019-01-24T03:02:48.940Z,100072.77
2019-01-24T03:05:52.316Z,100076.66
2019-01-24T03:08:55.720Z,100071.22
2019-01-24T03:11:59.110Z,100071.31
2019-01-24T03:15:02.494Z,100080.86
2019-01-24T03:18:06.008Z,100075.23
2019-01-24T03:21:09.402Z,100077.67
2019-01-24T03:24:12.771Z,100086.73
2019-01-24T03:27:16.551Z,100084.22
2019-01-24T03:30:22.014Z,100091.37
2019-01-24T03:33:25.408Z,100087.08
2019-01-24T03:36:28.795Z,100087.08
2019-01-24T03:39:32.164Z,100087.22
2019-01-24T03:42:35.540Z,100095.91
2019-01-24T03:45:39.215Z,100093.17
2019-01-24T03:48:42.627Z,100099.23
2019-01-24T03:51:46.014Z,100095.64
2019-01-24T03:54:49.405Z,100095.30
2019-01-24T03:57:52.778Z,100095.23
2019-01-24T04:00:56.156Z,100099.48
2019-01-24T04:03:59.605Z,100098.06
2019-01-24T04:07:02.995Z,100091.05
2019-01-24T04:10:09.414Z,100099.80
2019-01-24T04:13:12.794Z,100101.98
2019-01-24T04:16:16.166Z,100105.78
2019-01-24T04:19:19.548Z,100110.94
2019-01-24T04:22:22.919Z,100110.30
2019-01-24T04:25:26.368Z,100113.51
2019-01-24T04:28:31.402Z,100116.97
2019-01-24T04:31:34.771Z,100108.77
2019-01-24T04:34:38.156Z,100111.02
2019-01-24T04:37:41.533Z,100111.19
2019-01-24T04:40:44.916Z,100121.34
2019-01-24T04:43:48.282Z,100121.73
2019-01-24T04:46:51.664Z,100123.27
2019-01-24T04:49:55.044Z,100120.95
2019-01-24T04:52:58.417Z,100130.61
2019-01-24T04:56:01.803Z,100136.48
2019-01-24T04:59:05.485Z,100141.31
2019-01-24T05:02:08.864Z,100144.42
2019-01-24T05:05:12.327Z,100150.55
2019-01-24T05:08:16.019Z,100149.37
2019-01-24T05:11:19.404Z,100158.17
2019-01-24T05:14:22.784Z,100162.78
2019-01-24T05:17:26.174Z,100167.77
2019-01-24T05:20:29.566Z,100167.71
2019-01-24T05:23:32.937Z,100172.66
2019-01-24T05:26:36.325Z,100175.46
2019-01-24T05:29:39.947Z,100174.23
2019-01-24T05:32:43.338Z,100184.88
2019-01-24T05:35:46.715Z,100189.55
2019-01-24T05:38:50.106Z,100184.64
2019-01-24T05:41:53.495Z,100198.22
2019-01-24T05:44:56.868Z,100196.58
2019-01-24T05:48:00.259Z,100199.83
2019-01-24T05:51:03.643Z,100198.38
2019-01-24T05:54:07.023Z,100203.83
2019-01-24T05:57:10.413Z,100209.14
2019-01-24T06:00:18.478Z,100205.09
2019-01-24T06:03:21.863Z,100215.43
2019-01-24T06:06:25.238Z,100222.39
2019-01-24T06:09:28.627Z,100217.45
2019-01-24T06:12:32.001Z,100212.66
2019-01-24T06:15:35.388Z,100219.14
2019-01-24T06:18:38.775Z,100223.48
2019-01-24T06:21:42.145Z,100221.04
2019-01-24T06:24:45.534Z,100224.44
2019-01-24T06:27:48.910Z,100226.70
2019-01-24T06:30:52.301Z,100225.50
2019-01-24T06:33:55.684Z,100227.86
2019-01-24T06:36:59.071Z,100231.37
2019-01-24T06:40:02.461Z,100228.34
2019-01-24T06:43:05.831Z,100230.01
2019-01-24T06:46:09.241Z,100233.63
2019-01-24T06:49:12.626Z,100236.50
2019-01-24T06:52:16.038Z,100242.78
2019-01-24T06:55:59.332Z,100243.64
2019-01-24T06:59:02.716Z,100245.53
2019-01-24T07:02:06.184Z,100253.52
2019-01-24T07:05:09.708Z,100259.33
2019-01-24T07:08:13.073Z,100263.53
2019-01-24T07:11:16.452Z,100261.15
2019-01-24T07:14:20.151Z,100266.85
2019-01-24T07:17:23.537Z,100269.45
2019-01-24T07:20:26.918Z,100267.98
2019-01-24T07:23:30.370Z,100272.42
2019-01-24T07:26:33.746Z,100274.61
2019-01-24T07:29:37.136Z,100279.94
2019-01-24T07:32:40.525Z,100279.84
2019-01-24T07:35:43.900Z,100284.34
2019-01-24T07:38:47.287Z,100287.86
2019-01-24T07:41:50.666Z,100290.73
2019-01-24T07:44:54.057Z,100299.02
2019-01-24T07:47:57.446Z,100305.12
2019-01-24T07:51:00.855Z,100308.52
2019-01-24T07:57:33.829Z,100318.27
2019-01-24T08:00:37.606Z,100322.58
2019-01-24T08:03:40.994Z,100320.23
2019-01-24T08:06:44.369Z,100333.91
2019-01-24T08:09:47.762Z,100342.05
2019-01-24T08:12:51.211Z,100346.48
2019-01-24T08:15:54.609Z,100351.93
2019-01-24T08:18:58.019Z,100340.52
2019-01-24T08:22:01.403Z,100352.86
2019-01-24T08:25:44.717Z,100354.61
2019-01-24T08:28:48.100Z,100358.90
2019-01-24T08:31:51.483Z,100357.80
2019-01-24T08:34:54.864Z,100351.71
2019-01-24T08:37:58.487Z,100365.29
2019-01-24T08:41:01.867Z,100368.90
2019-01-24T08:44:05.397Z,100366.86
2019-01-24T08:47:08.767Z,100373.42
2019-01-24T08:50:52.062Z,100378.83
2019-01-24T08:53:55.438Z,100381.66
2019-01-24T08:56:58.831Z,100386.41
2019-01-24T09:00:02.216Z,100384.92
2019-01-24T09:03:06.045Z,100384.42
2019-01-24T09:06:09.430Z,100393.48
2019-01-24T09:09:12.889Z,100397.61
2019-01-24T09:12:16.282Z,100405.19
2019-01-24T09:15:19.727Z,100407.25
2019-01-24T09:18:23.171Z,100419.00
2019-01-24T09:21:26.644Z,100411.42
2019-01-24T09:24:30.024Z,100416.20
2019-01-24T09:27:33.478Z,100424.67
2019-01-24T09:30:36.853Z,100424.70
2019-01-24T09:33:40.250Z,100427.45
2019-01-24T09:36:43.637Z,100429.09
2019-01-24T09:39:47.019Z,100434.80
2019-01-24T09:42:50.490Z,100437.97
2019-01-24T09:45:53.870Z,100439.20
2019-01-24T09:48:57.246Z,100443.09
2019-01-24T09:52:00.632Z,100440.89
2019-01-24T09:55:24.812Z,100436.25
2019-01-24T09:58:28.283Z,100438.20
2019-01-24T10:01:31.708Z,100439.84
2019-01-24T10:04:54.495Z,100447.69
2019-01-24T10:07:57.955Z,100451.44
2019-01-24T10:11:23.579Z,100443.45
2019-01-24T10:14:25.781Z,100439.86
2019-01-24T10:17:49.275Z,100445.52
2019-01-24T10:20:52.690Z,100449.33
2019-01-24T10:23:56.366Z,100443.33
2019-01-24T10:26:59.736Z,100443.24
2019-01-24T10:30:23.434Z,100439.02
2019-01-24T10:33:26.817Z,100433.64
2019-01-24T10:36:49.530Z,100442.68
2019-01-24T10:39:52.914Z,100441.23
2019-01-24T10:43:36.206Z,100443.71
2019-01-24T10:46:39.599Z,100438.30
2019-01-24T10:49:43.035Z,100430.11
2019-01-24T10:52:46.481Z,100447.48
2019-01-24T10:55:49.870Z,100443.22
2019-01-24T10:58:53.262Z,100438.20
2019-01-24T11:01:56.702Z,100439.70
2019-01-24T11:05:00.186Z,100444.66
2019-01-24T11:11:46.622Z,100448.15
2019-01-24T11:14:50.015Z,100442.28
2019-01-24T11:17:53.399Z,100445.53
2019-01-24T11:20:56.787Z,100439.11
2019-01-24T11:24:00.160Z,100441.77
2019-01-24T11:27:03.547Z,100450.59
2019-01-24T11:30:46.849Z,100448.14
2019-01-24T11:33:50.216Z,100439.10
2019-01-24T11:36:57.148Z,100440.28
2019-01-24T11:39:58.722Z,100443.22
2019-01-24T11:43:02.213Z,100447.08
2019-01-24T11:46:05.702Z,100433.72
2019-01-24T11:49:09.075Z,100436.53
2019-01-24T11:52:12.741Z,100432.84
2019-01-24T11:55:56.033Z,100436.36
2019-01-24T11:58:59.677Z,100450.86
2019-01-24T12:02:03.058Z,100448.73
2019-01-24T12:05:46.343Z,100455.48
2019-01-24T12:08:49.732Z,100462.66
2019-01-24T12:11:53.123Z,100456.80
2019-01-24T12:15:36.474Z,100451.60
2019-01-24T12:18:39.868Z,100459.23
2019-01-24T12:21:43.243Z,100459.91
2019-01-24T12:24:58.676Z,100470.32
2019-01-24T12:28:02.063Z,100477.94
2019-01-24T12:31:05.449Z,100464.81
2019-01-24T12:34:08.839Z,100470.79
2019-01-24T12:37:12.284Z,100467.86
2019-01-24T12:40:15.744Z,100472.54
2019-01-24T12:43:19.123Z,100479.39
2019-01-24T12:46:22.496Z,100472.12
2019-01-24T12:49:26.063Z,100462.11
2019-01-24T12:52:29.455Z,100455.34
2019-01-24T12:55:32.848Z,100459.06
2019-01-24T12:58:36.232Z,100464.41
2019-01-24T13:01:39.604Z,100456.41
2019-01-24T13:04:43.013Z,100460.23
2019-01-24T13:07:46.389Z,100460.01
2019-01-24T13:10:49.774Z,100468.77
2019-01-24T13:13:53.163Z,100461.28
2019-01-24T13:16:56.562Z,100470.45
2019-01-24T13:19:59.941Z,100464.14
2019-01-24T13:23:03.597Z,100473.11
2019-01-24T13:26:07.056Z,100470.03
2019-01-24T13:29:10.445Z,100468.55
2019-01-24T13:32:13.853Z,100470.90
2019-01-24T13:35:19.371Z,100458.27
2019-01-24T13:38:22.743Z,100461.01
2019-01-24T13:41:26.154Z,100454.23
2019-01-24T13:44:29.532Z,100458.58
2019-01-24T13:47:32.967Z,100451.00
2019-01-24T13:50:36.569Z,100448.81
2019-01-24T13:53:39.936Z,100452.97
2019-01-24T13:56:43.323Z,100459.52
2019-01-24T13:59:46.703Z,100469.55
2019-01-24T14:02:53.302Z,100477.92
2019-01-24T14:05:56.697Z,100481.63
2019-01-24T14:09:00.074Z,100480.87
2019-01-24T14:12:03.455Z,100474.67
2019-01-24T14:15:09.880Z,100475.56
2019-01-24T14:18:13.275Z,100479.56
2019-01-24T14:21:16.663Z,100484.68
2019-01-24T14:24:20.051Z,100493.61
2019-01-24T14:27:23.433Z,100492.15
2019-01-24T14:30:28.446Z,100497.22
2019-01-24T14:33:31.841Z,100504.99
2019-01-24T14:36:35.231Z,100507.03
2019-01-24T14:39:38.604Z,100504.30
2019-01-24T14:42:42.164Z,100506.62
2019-01-24T14:45:45.538Z,100512.54
2019-01-24T14:48:48.930Z,100505.89
2019-01-24T14:51:52.313Z,100511.42
2019-01-24T14:54:55.700Z,100515.95
2019-01-24T14:57:59.094Z,100515.66
2019-01-24T15:01:04.551Z,100513.45
2019-01-24T15:04:07.938Z,100507.17
2019-01-24T15:07:11.405Z,100523.06
2019-01-24T15:10:21.145Z,100519.98
2019-01-24T15:13:34.758Z,100520.23
2019-01-24T15:16:44.196Z,100524.41
2019-01-24T15:19:47.568Z,100528.92
2019-01-24T15:22:59.199Z,100532.70
2019-01-24T15:26:08.422Z,100536.83
2019-01-24T15:29:14.797Z,100539.66
2019-01-24T15:32:18.185Z,100538.02
2019-01-24T15:35:21.705Z,100536.73
2019-01-24T15:38:25.105Z,100533.73
2019-01-24T15:41:28.485Z,100545.56
2019-01-24T15:44:31.871Z,100546.69
2019-01-24T15:47:35.413Z,100551.96
2019-01-24T15:50:48.100Z,100558.86
2019-01-24T15:54:00.528Z,100559.73
2019-01-24T15:57:13.035Z,100562.17
2019-01-24T16:00:26.725Z,100555.13
2019-01-24T16:03:38.079Z,100564.52
2019-01-24T16:06:41.462Z,100572.87
2019-01-24T16:09:45.302Z,100569.84
2019-01-24T16:12:50.381Z,100572.81
2019-01-24T16:15:55.806Z,100574.25
2019-01-24T16:18:59.210Z,100576.55
2019-01-24T16:22:02.714Z,100583.81
2019-01-24T16:25:09.437Z,100581.69
2019-01-24T16:28:12.889Z,100587.13
2019-01-24T16:31:16.290Z,100593.88
2019-01-24T16:34:19.689Z,100598.62
2019-01-24T16:37:25.698Z,100608.16
2019-01-24T16:40:30.254Z,100600.35
2019-01-24T16:43:35.577Z,100610.39
2019-01-24T16:46:39.896Z,100602.67
2019-01-24T16:49:43.273Z,100609.02
2019-01-24T16:52:46.731Z,100616.50
2019-01-24T16:55:51.054Z,100617.34
2019-01-24T16:58:55.408Z,100620.77
2019-01-24T17:01:58.798Z,100628.16
2019-01-24T17:05:03.291Z,100619.53
2019-01-24T17:08:07.345Z,100624.75
2019-01-24T17:11:10.712Z,100629.67
2019-01-24T17:14:22.286Z,100626.75
2019-01-24T17:17:23.194Z,100629.72
2019-01-24T17:20:32.598Z,100630.30
2019-01-24T17:23:35.985Z,100630.41
2019-01-24T17:26:39.373Z,100622.63
2019-01-24T17:29:42.759Z,100624.75
2019-01-24T17:32:46.405Z,100634.13
2019-01-24T17:35:49.779Z,100637.80
2019-01-24T17:38:53.171Z,100635.95
2019-01-24T17:41:56.557Z,100633.18
2019-01-24T17:45:11.435Z,100633.91
2019-01-24T17:48:14.832Z,100630.88
2019-01-24T17:51:18.209Z,100634.38
2019-01-24T17:54:21.589Z,100634.24
2019-01-24T17:57:24.981Z,100633.43
2019-01-24T18:00:34.997Z,100631.25
2019-01-24T18:03:44.215Z,100634.35
2019-01-24T18:06:47.848Z,100628.69
2019-01-24T18:10:14.150Z,100626.49
2019-01-24T18:13:15.669Z,100635.52
2019-01-24T18:16:28.138Z,100637.41
2019-01-24T18:19:31.514Z,100630.55
2019-01-24T18:22:34.905Z,100635.66
2019-01-24T18:25:38.357Z,100639.44
2019-01-24T18:28:43.674Z,100641.80
2019-01-24T18:31:57.136Z,100652.56
2019-01-24T18:35:07.917Z,100652.78
2019-01-24T18:38:11.344Z,100657.64
2019-01-24T18:41:25.656Z,100667.78
2019-01-24T18:44:29.029Z,100673.48
2019-01-24T18:47:32.434Z,100691.77
2019-01-24T18:50:35.932Z,100688.70
2019-01-24T18:53:39.330Z,100691.14
2019-01-24T18:56:42.768Z,100695.70
2019-01-24T18:59:46.165Z,100705.30
2019-01-24T19:02:49.553Z,100712.05
2019-01-24T19:05:52.948Z,100705.20
2019-01-24T19:09:15.764Z,100704.38
2019-01-24T19:12:20.926Z,100710.61
2019-01-24T19:15:45.106Z,100713.58
2019-01-24T19:18:48.734Z,100715.66
2019-01-24T19:21:52.165Z,100719.24
2019-01-24T19:25:34.123Z,100725.41
2019-01-24T19:28:37.521Z,100725.05
2019-01-24T19:31:40.893Z,100727.51
2019-01-24T19:34:44.284Z,100734.17
2019-01-24T19:37:47.740Z,100730.85
2019-01-24T19:40:51.121Z,100728.91
2019-01-24T19:43:54.537Z,100729.17
2019-01-24T19:46:57.921Z,100721.01
2019-01-24T19:50:01.310Z,100724.59
2019-01-24T19:53:25.657Z,100716.67
2019-01-24T19:56:29.034Z,100725.17
2019-01-24T19:59:32.436Z,100729.59
2019-01-24T20:02:35.829Z,100733.88
2019-01-24T20:05:39.223Z,100734.00
2019-01-24T20:08:42.595Z,100734.67
2019-01-24T20:11:45.972Z,100742.58
2019-01-24T20:14:49.626Z,100743.70
2019-01-24T20:17:53.062Z,100737.06
2019-01-24T20:20:56.531Z,100746.02
2019-01-24T20:23:59.923Z,100747.32
2019-01-24T20:27:03.320Z,100748.56
2019-01-24T20:30:26.933Z,100751.63
2019-01-24T20:33:30.315Z,100757.28
2019-01-24T20:36:33.697Z,100753.23
2019-01-24T20:39:37.104Z,100755.06
2019-01-24T20:42:40.502Z,100755.95
2019-01-24T20:45:43.940Z,100759.00
2019-01-24T20:48:47.336Z,100751.31
2019-01-24T20:51:50.726Z,100746.85
2019-01-24T20:54:54.109Z,100745.81
2019-01-24T20:57:57.504Z,100746.52
2019-01-24T21:01:01.155Z,100741.38
2019-01-24T21:04:23.948Z,100737.18
2019-01-24T21:07:27.343Z,100732.92
2019-01-24T21:10:50.070Z,100737.70
2019-01-24T21:14:05.241Z,100734.39
2019-01-24T21:17:08.634Z,100744.04
2019-01-24T21:20:32.114Z,100741.95
2019-01-24T21:23:35.514Z,100742.42
2019-01-24T21:26:38.887Z,100747.48
2019-01-24T21:29:42.309Z,100753.95
2019-01-24T21:32:45.773Z,100757.45
2019-01-24T21:36:08.494Z,100745.34
2019-01-24T21:39:11.879Z,100748.73
2019-01-24T21:42:34.612Z,100753.14
2019-01-24T21:45:58.779Z,100746.36
2019-01-24T21:49:02.175Z,100749.43
2019-01-24T21:52:05.689Z,100746.05
2019-01-24T21:55:48.994Z,100764.84
2019-01-24T21:58:52.394Z,100758.13
2019-01-24T22:01:55.784Z,100749.84
2019-01-24T22:04:59.195Z,100754.53
2019-01-24T22:08:02.589Z,100749.42
2019-01-24T22:11:18.315Z,100762.42
2019-01-24T22:14:21.706Z,100763.95
2019-01-24T22:17:25.109Z,100764.72
2019-01-24T22:20:28.553Z,100761.15
2019-01-24T22:23:32.856Z,100765.00
2019-01-24T22:26:36.246Z,100754.27
2019-01-24T22:29:39.642Z,100765.06
2019-01-24T22:32:43.021Z,100763.56
2019-01-24T22:35:46.650Z,100766.71
2019-01-24T22:38:50.030Z,100768.39
2019-01-24T22:41:53.424Z,100769.86
2019-01-24T22:44:56.808Z,100765.90
2019-01-24T22:48:00.443Z,100773.48
2019-01-24T22:54:33.757Z,100771.61
2019-01-24T22:57:37.146Z,100775.94
2019-01-24T23:01:20.518Z,100779.13
2019-01-24T23:04:23.975Z,100770.84
2019-01-24T23:07:46.691Z,100784.11
2019-01-24T23:10:50.078Z,100774.92
2019-01-24T23:13:53.466Z,100772.55
2019-01-24T23:16:57.094Z,100779.81
2019-01-24T23:20:00.473Z,100782.20
2019-01-24T23:26:33.963Z,100777.95
2019-01-24T23:29:37.339Z,100781.01
2019-01-24T23:32:40.724Z,100796.03
2019-01-24T23:35:44.186Z,100786.01
2019-01-24T23:38:47.575Z,100781.64
2019-01-24T23:41:50.945Z,100785.30
2019-01-24T23:44:54.338Z,100792.23
2019-01-24T23:47:57.723Z,100788.28
2019-01-24T23:51:01.106Z,100776.72
2019-01-24T23:54:04.710Z,100780.30
2019-01-24T23:57:08.105Z,100780.12
